Overview Statistics Trail Chart Weather Telemetry Raw packets
 

This is the latest recevied weather packets stored in our database for station/object PY2XH-13. If no packets are shown the sender has not sent any weather packets the latest 10 day(s).

<< 5 6 7 8 9 10 11 >>
Time Temp. Humidity Pressure Rain* Wind** Luminosity Snow
1788362164 21.11° C 56% 1033.5 hPa - - - -
1788360364 20.56° C 57% 1033.9 hPa - - - -
1788358564 21.11° C 61% 1034.1 hPa - - - -
1788356764 20.56° C 61% 1034.3 hPa - - - -
1788354964 20.56° C 59% 1034.5 hPa - - - -
1788353164 20.56° C 57% 1034.6 hPa - - - -
1788351364 20.56° C 60% 1034.2 hPa - - - -
1788349564 20.56° C 61% 1033.9 hPa - - - -
1788347765 20.56° C 61% 1033.9 hPa - - - -
1788345965 20.56° C 64% 1033.5 hPa - - - -
1788344164 20.56° C 64% 1033.3 hPa - - - -
1788342364 20.56° C 65% 1032.9 hPa - - - -
1788239765 23.33° C 72% 1025.9 hPa - - - -
1788104764 25° C 62% 1028.6 hPa - - - -
1788102965 25° C 63% 1029.1 hPa - - - -
1788101165 25° C 64% 1029.8 hPa - - - -
1788099364 24.44° C 65% 1031.1 hPa - - - -
1788097564 24.44° C 66% 1031.2 hPa - - - -
1788095764 24.44° C 65% 1031.6 hPa - - - -
1788093970 24.44° C 65% 1031.3 hPa - - - -
1788092164 25° C 64% 1031.1 hPa - - - -
1788090364 25° C 64% 1030.9 hPa - - - -
1788088564 25° C 64% 1030.5 hPa - - - -
1788086764 24.44° C 66% 1030.2 hPa - - - -
1788084964 23.89° C 66% 1030.3 hPa - - - -

* Rain since midnight (hover to see other rain measurements)
** Current wind speed in m/s (hover to see current wind gust speed)